Time;durP1;ratioP1;P1;durP2;ratioP2;P2;SDS_P1;SDS_P2;PMS_P1;PMS_P2;Temp;Humidity;BMP_temperature;BMP_pressure;BME280_temperature;BME280_humidity;BME280_pressure;Samples;Min_cycle;Max_cycle;Signal;HPM_P1;HPM_P2
2021/05/19 00:01:25;;;;;;;51.08;29.95;;;;;;;8.87;76.34;100263.63;5072515;28;20386;-70
2021/05/19 00:03:51;;;;;;;44.70;27.77;;;;;;;8.84;76.09;100268.97;5072769;28;20056;-70
2021/05/19 00:06:19;;;;;;;47.35;28.63;;;;;;;8.79;76.36;100267.13;5072037;28;20421;-70
2021/05/19 00:08:46;;;;;;;46.80;28.40;;;;;;;8.74;76.77;100265.28;5072503;28;20056;-70
2021/05/19 00:11:13;;;;;;;47.00;28.77;;;;;;;8.71;76.51;100260.34;5072388;28;20409;-70
2021/05/19 00:13:40;;;;;;;47.50;28.45;;;;;;;8.70;76.57;100264.25;5072957;28;20052;-70
2021/05/19 00:16:08;;;;;;;44.95;26.98;;;;;;;8.68;76.31;100263.72;5071748;28;20056;-70
2021/05/19 00:18:38;;;;;;;42.28;26.92;;;;;;;8.66;75.89;100256.84;5071857;28;20056;-70
2021/05/19 00:21:06;;;;;;;49.63;28.23;;;;;;;8.63;75.91;100257.44;5072471;28;20053;-70
2021/05/19 00:23:34;;;;;;;43.80;26.58;;;;;;;8.59;76.16;100256.41;5072713;28;20044;-70
2021/05/19 00:26:01;;;;;;;44.70;26.70;;;;;;;8.54;75.77;100263.69;5072977;28;20143;-70
2021/05/19 00:28:29;;;;;;;44.10;26.98;;;;;;;8.51;76.39;100264.31;5071096;28;20044;-70
2021/05/19 00:30:59;;;;;;;46.65;28.38;;;;;;;8.45;76.50;100261.94;5072364;28;20052;-70
2021/05/19 00:33:26;;;;;;;45.47;27.73;;;;;;;8.41;76.08;100269.25;5072541;28;20059;-70
2021/05/19 00:35:53;;;;;;;48.00;29.50;;;;;;;8.36;75.72;100259.03;5072231;28;20057;-70
2021/05/19 00:38:22;;;;;;;46.15;27.15;;;;;;;8.37;75.69;100265.41;5072531;28;20053;-70
2021/05/19 00:40:50;;;;;;;41.92;25.80;;;;;;;8.33;75.65;100267.94;5072055;28;20057;-70
2021/05/19 00:43:17;;;;;;;41.83;24.75;;;;;;;8.31;75.39;100261.88;5072429;28;20496;-70
2021/05/19 00:45:45;;;;;;;37.72;23.77;;;;;;;8.28;76.35;100262.50;5071910;28;20064;-70
2021/05/19 00:48:11;;;;;;;36.17;23.67;;;;;;;8.24;76.46;100256.72;5072621;28;20048;-70
2021/05/19 00:50:39;;;;;;;35.67;23.85;;;;;;;8.21;75.77;100256.50;5072033;28;20075;-70
2021/05/19 00:53:07;;;;;;;37.13;22.95;;;;;;;8.13;75.77;100253.31;5075178;28;20049;-70
2021/05/19 00:55:34;;;;;;;37.30;24.45;;;;;;;8.09;75.93;100255.03;5092213;28;20056;-70
2021/05/19 00:58:02;;;;;;;42.03;25.00;;;;;;;8.05;75.47;100262.31;5092297;28;20048;-71
2021/05/19 01:00:29;;;;;;;48.80;27.98;;;;;;;8.03;76.14;100256.25;5085077;28;20402;-70
2021/05/19 01:02:59;;;;;;;38.22;24.23;;;;;;;8.02;76.38;100251.00;5071831;28;20056;-70
2021/05/19 01:05:31;;;;;;;32.15;21.38;;;;;;;8.02;75.93;100248.22;5071743;28;20127;-71
2021/05/19 01:10:43;;;;;;;37.90;24.38;;;;;;;7.93;75.75;100257.22;5076981;28;20402;-70
2021/05/19 01:13:10;;;;;;;46.20;25.70;;;;;;;7.86;75.88;100258.75;5071910;28;20049;-70
2021/05/19 01:15:40;;;;;;;38.17;24.27;;;;;;;7.86;76.18;100254.03;5072148;28;20056;-70
2021/05/19 01:18:08;;;;;;;39.85;23.85;;;;;;;7.84;75.83;100252.69;5071791;28;20053;-70
2021/05/19 01:20:36;;;;;;;39.03;23.80;;;;;;;7.81;76.01;100259.66;5071357;28;20056;-70
2021/05/19 01:23:05;;;;;;;42.45;24.60;;;;;;;7.74;76.01;100250.88;5072021;28;20418;-70
2021/05/19 01:25:33;;;;;;;40.80;24.05;;;;;;;7.71;75.67;100255.09;5071887;28;20056;-70
2021/05/19 01:28:03;;;;;;;44.75;24.92;;;;;;;7.71;75.59;100248.72;5071910;28;20056;-70
2021/05/19 01:30:33;;;;;;;39.45;23.02;;;;;;;7.69;76.47;100251.78;5072629;28;20485;-69
2021/05/19 01:33:00;;;;;;;41.83;23.38;;;;;;;7.64;76.85;100260.22;5075090;28;20053;-69
2021/05/19 01:35:27;;;;;;;40.78;24.95;;;;;;;7.64;75.85;100256.59;5075635;28;20052;-69
2021/05/19 01:37:56;;;;;;;44.88;25.83;;;;;;;7.63;76.76;100252.19;5075249;28;20052;-69
2021/05/19 01:40:27;;;;;;;51.08;27.35;;;;;;;7.64;76.80;100253.81;5075061;28;20053;-69
2021/05/19 01:42:55;;;;;;;50.33;26.92;;;;;;;7.71;76.68;100265.38;5075309;28;20071;-69
2021/05/19 01:45:24;;;;;;;48.05;27.70;;;;;;;7.79;77.39;100255.53;5075539;28;20528;-69
2021/05/19 01:47:53;;;;;;;40.80;24.92;;;;;;;7.87;76.44;100257.63;5075224;28;20057;-69
2021/05/19 01:50:21;;;;;;;42.90;24.40;;;;;;;7.99;76.62;100260.75;5075387;28;20079;-69
2021/05/19 01:52:52;;;;;;;38.47;24.00;;;;;;;8.06;76.22;100254.81;5075379;28;20048;-69
2021/05/19 01:55:19;;;;;;;37.30;23.67;;;;;;;8.10;75.93;100255.84;5094940;28;20063;-69
2021/05/19 01:57:49;;;;;;;41.47;25.15;;;;;;;8.11;76.17;100257.53;5094398;28;20048;-69
2021/05/19 02:00:17;;;;;;;;;;;;;;;8.10;76.36;100261.41;5095585;28;20052;-69
2021/05/19 02:02:44;;;;;;;40.53;24.33;;;;;;;8.05;75.82;100253.19;5094814;28;19924;-69
2021/05/19 02:05:12;;;;;;;49.47;27.83;;;;;;;8.01;75.53;100250.19;5095112;28;20409;-69
2021/05/19 02:07:40;;;;;;;57.22;29.75;;;;;;;7.94;76.20;100255.31;5094625;28;20056;-69
2021/05/19 02:10:10;;;;;;;45.15;25.92;;;;;;;7.92;76.32;100252.00;5094648;28;20055;-69
2021/05/19 02:12:37;;;;;;;45.60;25.83;;;;;;;7.91;75.66;100247.56;5094747;28;20048;-69
2021/05/19 02:15:07;;;;;;;47.70;26.42;;;;;;;7.90;75.83;100254.25;5094744;28;20059;-69
2021/05/19 02:17:36;;;;;;;47.03;26.15;;;;;;;7.84;75.97;100259.06;5094403;28;20054;-69
2021/05/19 02:20:11;;;;;;;56.15;29.83;;;;;;;7.82;75.75;100255.75;5094732;28;20461;-69
2021/05/19 02:22:38;;;;;;;45.08;25.92;;;;;;;7.80;75.73;100248.88;5094381;28;20067;-69
2021/05/19 02:25:07;;;;;;;46.88;27.23;;;;;;;7.79;75.85;100250.81;5094094;28;20074;-69
2021/05/19 02:27:34;;;;;;;53.40;29.13;;;;;;;7.76;75.46;100261.69;5094386;28;20393;-69
2021/05/19 02:30:01;;;;;;;61.05;30.92;;;;;;;7.72;75.88;100253.13;5094114;28;20390;-69
2021/05/19 02:32:29;;;;;;;55.30;29.15;;;;;;;7.70;75.48;100258.97;5094009;28;20500;-68
2021/05/19 02:34:56;;;;;;;53.53;29.38;;;;;;;7.69;75.41;100246.25;5094146;28;20059;-69
2021/05/19 02:37:23;;;;;;;48.97;27.20;;;;;;;7.69;75.46;100253.75;5094191;28;20056;-68
2021/05/19 02:39:50;;;;;;;44.38;26.42;;;;;;;7.66;75.37;100255.16;5094354;28;20059;-68
2021/05/19 02:42:17;;;;;;;48.78;27.98;;;;;;;7.63;75.40;100241.09;5093299;28;20052;-68
2021/05/19 02:44:44;;;;;;;52.80;27.48;;;;;;;7.57;75.75;100256.16;5094560;28;20055;-68
2021/05/19 02:47:11;;;;;;;50.63;27.92;;;;;;;7.57;75.38;100254.19;5094625;28;20366;-68
2021/05/19 02:49:53;;;;;;;55.63;29.45;;;;;;;7.58;75.43;100252.25;5094056;28;20068;-68
2021/05/19 02:52:20;;;;;;;61.08;31.67;;;;;;;7.57;76.17;100254.19;5091772;28;20063;-68
2021/05/19 02:54:47;;;;;;;56.35;28.70;;;;;;;7.52;75.97;100251.50;5077860;28;20056;-68
2021/05/19 02:57:14;;;;;;;54.22;29.48;;;;;;;7.50;76.44;100253.75;5073044;28;20053;-68
2021/05/19 02:59:41;;;;;;;82.03;35.92;;;;;;;7.52;76.85;100245.97;5073753;28;20067;-68
2021/05/19 03:02:08;;;;;;;57.28;31.17;;;;;;;7.50;76.74;100245.44;5073064;28;20052;-68
2021/05/19 03:04:35;;;;;;;56.55;29.15;;;;;;;7.52;76.96;100248.75;5073214;28;20056;-68
2021/05/19 03:07:03;;;;;;;61.75;30.42;;;;;;;7.50;76.80;100249.03;5073824;28;20044;-68
2021/05/19 03:09:30;;;;;;;59.83;30.52;;;;;;;7.52;76.01;100246.78;5073440;28;20482;-67
2021/05/19 03:11:57;;;;;;;65.28;32.72;;;;;;;7.48;76.25;100239.38;5073588;28;20057;-67
2021/05/19 03:14:24;;;;;;;56.63;30.52;;;;;;;7.49;76.58;100252.91;5073481;28;20049;-67
2021/05/19 03:16:51;;;;;;;61.78;31.20;;;;;;;7.49;76.51;100247.38;5073139;28;20048;-67
2021/05/19 03:19:18;;;;;;;62.83;30.90;;;;;;;7.50;76.73;100253.75;5073700;28;20053;-67
2021/05/19 03:21:45;;;;;;;64.30;31.02;;;;;;;7.52;76.41;100251.50;5073618;28;20056;-67
2021/05/19 03:24:13;;;;;;;56.83;29.70;;;;;;;7.51;76.71;100258.97;5073252;28;20040;-67
2021/05/19 03:26:40;;;;;;;52.72;28.45;;;;;;;7.51;76.25;100249.84;5073492;28;20048;-69
2021/05/19 03:29:07;;;;;;;70.10;35.00;;;;;;;7.52;75.99;100257.06;5072623;28;20068;-68
2021/05/19 03:31:33;;;;;;;52.35;29.15;;;;;;;7.50;76.48;100265.66;5073470;28;20402;-68
2021/05/19 03:34:00;;;;;;;58.67;28.92;;;;;;;7.51;75.83;100258.97;5053015;28;20386;-68
2021/05/19 03:36:27;;;;;;;52.63;27.13;;;;;;;7.48;75.75;100262.38;5052975;28;20052;-68
2021/05/19 03:38:54;;;;;;;53.40;28.42;;;;;;;7.48;75.67;100275.41;5053238;28;20056;-68
2021/05/19 03:41:22;;;;;;;61.45;29.02;;;;;;;7.45;75.73;100275.97;5052847;28;20075;-68
2021/05/19 03:43:49;;;;;;;75.55;32.95;;;;;;;7.44;75.60;100277.13;5067062;28;20058;-68
2021/05/19 03:46:16;;;;;;;58.30;29.77;;;;;;;7.46;75.55;100274.88;5072710;28;20056;-68
2021/05/19 03:48:43;;;;;;;62.53;30.83;;;;;;;7.49;76.06;100274.25;5073112;28;20052;-68
2021/05/19 03:51:10;;;;;;;57.00;31.08;;;;;;;7.56;75.83;100265.56;5072853;28;20056;-68
2021/05/19 03:53:37;;;;;;;55.92;29.08;;;;;;;7.58;76.02;100282.72;5078648;28;20389;-68
2021/05/19 03:56:04;;;;;;;52.40;29.35;;;;;;;7.62;75.82;100272.69;5093085;28;20051;-68
2021/05/19 03:58:32;;;;;;;50.17;27.98;;;;;;;7.64;75.32;100268.53;5079711;28;20075;-68
2021/05/19 04:00:59;;;;;;;60.03;30.60;;;;;;;7.75;76.01;100273.88;5072557;28;20053;-68
2021/05/19 04:03:26;;;;;;;61.97;31.67;;;;;;;7.89;76.23;100274.78;5072724;28;20056;-68
2021/05/19 04:05:53;;;;;;;54.13;29.58;;;;;;;8.01;75.76;100277.91;5072502;28;20056;-68
2021/05/19 04:08:19;;;;;;;50.08;28.30;;;;;;;8.11;75.81;100285.25;5072793;28;20060;-68
2021/05/19 04:10:46;;;;;;;53.20;29.25;;;;;;;8.22;75.80;100283.13;5072525;28;20414;-68
2021/05/19 04:13:13;;;;;;;52.38;28.80;;;;;;;8.31;76.56;100281.31;5073018;28;20049;-68
2021/05/19 04:15:41;;;;;;;56.95;30.27;;;;;;;8.45;75.82;100287.75;5072400;28;20052;-68
2021/05/19 04:18:09;;;;;;;51.60;29.88;;;;;;;8.56;76.11;100290.34;5072701;28;20060;-68
2021/05/19 04:20:36;;;;;;;54.95;29.70;;;;;;;8.68;75.83;100285.94;5072846;28;20060;-67
2021/05/19 04:23:03;;;;;;;52.65;29.05;;;;;;;8.81;75.71;100289.88;5072979;28;20053;-67
2021/05/19 04:25:30;;;;;;;48.08;28.50;;;;;;;8.89;75.74;100286.38;5073028;28;20402;-67
2021/05/19 04:27:57;;;;;;;53.42;29.95;;;;;;;8.96;75.40;100291.50;5072535;28;20053;-67
2021/05/19 04:30:24;;;;;;;52.90;29.65;;;;;;;9.05;75.68;100297.19;5072187;28;20374;-67
2021/05/19 04:32:54;;;;;;;55.15;30.45;;;;;;;9.12;75.29;100297.59;5072551;28;20055;-67
2021/05/19 04:35:21;;;;;;;52.88;30.20;;;;;;;9.29;76.34;100296.97;5072063;28;20048;-67
2021/05/19 04:37:48;;;;;;;47.40;28.58;;;;;;;9.39;75.78;100302.31;5072263;28;20056;-67
2021/05/19 04:40:15;;;;;;;50.83;29.20;;;;;;;9.45;75.58;100301.09;5072416;28;20053;-67
2021/05/19 04:42:48;;;;;;;48.78;28.90;;;;;;;9.52;74.32;100295.91;5072380;28;20067;-67
2021/05/19 04:45:15;;;;;;;53.58;29.73;;;;;;;9.54;73.99;100298.38;5071958;28;20196;-67
2021/05/19 04:47:42;;;;;;;59.58;31.80;;;;;;;9.55;73.55;100300.88;5072748;28;20059;-67
2021/05/19 04:50:14;;;;;;;53.90;30.83;;;;;;;9.57;73.58;100305.28;5072424;28;20045;-67
2021/05/19 04:52:40;;;;;;;57.63;32.30;;;;;;;9.62;73.62;100300.44;5072236;28;20056;-67
2021/05/19 04:55:09;;;;;;;63.70;33.65;;;;;;;9.72;73.52;100303.00;5072405;28;20053;-67
2021/05/19 04:57:37;;;;;;;60.85;32.97;;;;;;;9.75;73.32;100304.31;5071652;28;20071;-67
2021/05/19 05:00:07;;;;;;;62.08;33.42;;;;;;;9.92;73.29;100309.22;5072592;28;20056;-67
2021/05/19 05:02:34;;;;;;;54.67;31.13;;;;;;;9.98;73.36;100307.13;5072810;28;20486;-68
2021/05/19 05:05:01;;;;;;;55.28;31.05;;;;;;;10.05;73.18;100307.50;5072859;28;20063;-68
2021/05/19 05:07:29;;;;;;;54.97;31.08;;;;;;;10.15;72.96;100307.28;5076148;28;20052;-68
2021/05/19 05:09:56;;;;;;;51.45;31.10;;;;;;;10.16;72.52;100315.31;5075922;28;20056;-68
2021/05/19 05:12:24;;;;;;;56.05;31.02;;;;;;;10.21;72.79;100319.09;5076275;28;20052;-68
2021/05/19 05:14:51;;;;;;;58.05;32.17;;;;;;;10.26;72.86;100324.53;5075997;28;20044;-68
2021/05/19 05:17:18;;;;;;;57.40;32.10;;;;;;;10.36;72.70;100315.97;5075797;28;20513;-68
2021/05/19 05:19:44;;;;;;;50.60;31.08;;;;;;;10.48;72.57;100321.78;5075331;28;20055;-67
2021/05/19 05:22:12;;;;;;;56.92;31.75;;;;;;;10.73;72.00;100325.03;5074509;28;20055;-67
2021/05/19 05:24:40;;;;;;;58.88;33.20;;;;;;;10.93;71.94;100330.06;5074987;28;20055;-68
2021/05/19 05:27:07;;;;;;;50.85;31.65;;;;;;;11.14;71.50;100327.53;5074885;28;20053;-68
2021/05/19 05:29:34;;;;;;;49.83;30.80;;;;;;;11.31;71.00;100323.16;5075934;28;20057;-68
2021/05/19 05:32:01;;;;;;;44.35;29.35;;;;;;;11.55;70.34;100328.34;5075388;28;20048;-68
2021/05/19 05:34:28;;;;;;;44.25;29.73;;;;;;;11.75;69.42;100319.31;5075326;28;20052;-68
2021/05/19 05:36:55;;;;;;;47.42;30.23;;;;;;;11.94;68.72;100321.03;5075398;28;20053;-68
2021/05/19 05:39:22;;;;;;;44.83;29.60;;;;;;;12.18;68.21;100326.94;5075372;28;20079;-68
2021/05/19 05:41:50;;;;;;;42.53;29.13;;;;;;;12.35;67.53;100319.72;5075373;28;20412;-68
2021/05/19 05:44:17;;;;;;;46.67;30.38;;;;;;;12.26;68.88;100324.47;5073493;28;20353;-68
2021/05/19 05:46:44;;;;;;;43.72;28.33;;;;;;;12.21;68.92;100325.47;5074619;28;20397;-68
2021/05/19 05:49:11;;;;;;;43.22;29.38;;;;;;;12.27;68.53;100328.91;5072267;28;20063;-68
2021/05/19 05:51:38;;;;;;;42.25;27.67;;;;;;;12.27;68.49;100328.91;5071392;28;20060;-68
2021/05/19 05:54:06;;;;;;;39.85;27.00;;;;;;;12.21;68.26;100330.22;5084342;28;20071;-68
2021/05/19 05:56:33;;;;;;;38.75;28.60;;;;;;;12.28;68.66;100334.16;5095407;28;20052;-68
2021/05/19 05:59:01;;;;;;;32.80;26.70;;;;;;;12.45;67.95;100332.50;5093850;28;20052;-68
2021/05/19 06:01:27;;;;;;;36.42;27.42;;;;;;;12.49;67.48;100331.50;5093701;28;20052;-68
2021/05/19 06:03:54;;;;;;;35.60;26.98;;;;;;;12.52;67.13;100330.84;5094340;28;20070;-68
2021/05/19 06:06:21;;;;;;;33.85;26.65;;;;;;;12.58;67.18;100339.91;5094533;28;20048;-68
2021/05/19 06:08:48;;;;;;;32.17;24.95;;;;;;;12.59;67.24;100335.94;5095466;28;20047;-68
2021/05/19 06:11:15;;;;;;;32.92;25.70;;;;;;;12.55;67.14;100332.97;5095912;28;20432;-68
2021/05/19 06:13:41;;;;;;;28.10;23.40;;;;;;;12.48;66.83;100337.44;5093834;28;20052;-68
2021/05/19 06:16:09;;;;;;;30.02;23.25;;;;;;;12.48;66.80;100326.28;5094762;28;20048;-68
2021/05/19 06:18:36;;;;;;;31.40;24.10;;;;;;;12.50;66.94;100333.16;5095299;28;20052;-68
2021/05/19 06:21:04;;;;;;;30.98;24.13;;;;;;;12.74;66.74;100327.03;5094750;28;20044;-68
2021/05/19 06:23:31;;;;;;;27.48;21.88;;;;;;;13.11;65.65;100340.56;5094786;28;20040;-68
2021/05/19 06:25:58;;;;;;;26.35;20.80;;;;;;;13.46;64.35;100346.03;5094923;28;20068;-68
2021/05/19 06:28:25;;;;;;;24.38;21.10;;;;;;;13.56;64.48;100352.06;5096407;28;20055;-68
2021/05/19 06:30:52;;;;;;;26.30;19.88;;;;;;;13.74;62.97;100347.19;5093332;28;20051;-68
2021/05/19 06:33:20;;;;;;;25.67;19.90;;;;;;;13.92;62.78;100347.06;5092504;28;20048;-68
2021/05/19 06:35:47;;;;;;;20.45;17.65;;;;;;;14.09;61.08;100341.34;5095174;28;20052;-68
2021/05/19 06:38:13;;;;;;;21.90;17.70;;;;;;;14.29;60.05;100331.28;5094740;28;20051;-68
2021/05/19 06:40:40;;;;;;;20.75;17.20;;;;;;;14.63;59.20;100336.94;5094683;28;20059;-68
2021/05/19 06:43:08;;;;;;;20.00;16.50;;;;;;;14.55;59.97;100331.09;5094681;28;20067;-68
2021/05/19 06:45:35;;;;;;;19.02;16.83;;;;;;;14.84;59.21;100331.28;5094484;28;20385;-68
2021/05/19 06:48:03;;;;;;;18.65;16.45;;;;;;;14.96;59.00;100334.13;5094623;28;20400;-68
2021/05/19 06:50:31;;;;;;;22.88;16.90;;;;;;;15.07;58.49;100337.28;5094295;28;20056;-67
2021/05/19 06:52:58;;;;;;;20.73;17.77;;;;;;;14.71;58.79;100334.06;5094538;28;20052;-37
2021/05/19 06:55:26;;;;;;;20.67;16.98;;;;;;;14.37;60.21;100340.78;5090761;28;20048;-64
2021/05/19 06:57:53;;;;;;;18.05;16.10;;;;;;;14.65;59.40;100340.22;5095622;28;20484;-64
2021/05/19 07:00:21;;;;;;;20.73;16.17;;;;;;;14.77;59.11;100331.84;5102690;28;20060;-64
2021/05/19 07:02:48;;;;;;;20.48;17.00;;;;;;;14.67;59.66;100338.72;5093109;28;20059;-64
2021/05/19 07:05:15;;;;;;;20.90;16.75;;;;;;;14.70;60.35;100338.03;5091741;28;20488;-64
2021/05/19 07:07:46;;;;;;;17.88;15.98;;;;;;;14.94;60.08;100336.47;5092369;28;20393;-64
2021/05/19 07:10:14;;;;;;;18.33;15.82;;;;;;;15.16;59.12;100340.81;5092660;28;20060;-64
2021/05/19 07:12:43;;;;;;;21.08;15.93;;;;;;;15.32;58.36;100341.75;5091809;28;20048;-64
2021/05/19 07:15:13;;;;;;;18.92;14.27;;;;;;;15.48;57.21;100339.09;5092779;28;20051;-64
2021/05/19 07:17:42;;;;;;;17.95;13.13;;;;;;;15.87;56.81;100344.34;5091517;28;20420;-64
2021/05/19 07:20:11;;;;;;;15.95;12.45;;;;;;;16.16;56.45;100337.59;5092448;28;20048;-64
2021/05/19 07:22:38;;;;;;;13.57;11.57;;;;;;;16.37;55.44;100329.81;5092453;28;20052;-64
2021/05/19 07:25:07;;;;;;;16.13;11.63;;;;;;;16.68;54.65;100333.88;5093474;28;20139;-63
2021/05/19 07:27:35;;;;;;;14.10;10.10;;;;;;;16.95;53.48;100326.63;5092167;28;20052;-63
2021/05/19 07:30:02;;;;;;;12.73;9.27;;;;;;;17.04;51.83;100326.44;5102978;28;20054;-63
2021/05/19 07:32:29;;;;;;;14.52;10.05;;;;;;;17.13;52.22;100327.06;5097604;28;20058;-63
2021/05/19 07:34:57;;;;;;;11.43;9.45;;;;;;;17.23;52.06;100331.34;5092780;28;20064;-63
2021/05/19 07:37:26;;;;;;;17.20;10.15;;;;;;;17.40;52.10;100342.25;5090965;28;20063;-63
2021/05/19 07:39:53;;;;;;;12.32;9.52;;;;;;;17.65;51.40;100339.22;5096730;28;20043;-63
2021/05/19 07:42:21;;;;;;;9.55;8.07;;;;;;;17.74;49.42;100334.19;5092181;28;20048;-64
2021/05/19 07:44:49;;;;;;;9.52;7.35;;;;;;;18.01;48.97;100340.06;5100835;28;20047;-64
2021/05/19 07:47:18;;;;;;;13.05;8.88;;;;;;;18.12;48.31;100337.50;5086522;28;20058;-64
2021/05/19 07:49:44;;;;;;;12.80;7.93;;;;;;;18.39;47.29;100335.66;5090184;28;20051;-64
2021/05/19 07:52:11;;;;;;;11.13;8.63;;;;;;;18.20;48.06;100340.09;5090933;28;20389;-64
2021/05/19 07:54:38;;;;;;;9.68;7.72;;;;;;;18.61;47.44;100342.56;5080389;28;20060;-64
2021/05/19 07:57:10;;;;;;;9.68;6.68;;;;;;;18.95;45.98;100337.19;5072583;28;20052;-64
2021/05/19 07:59:38;;;;;;;9.23;6.18;;;;;;;20.19;44.07;100333.94;5086945;28;20060;-64
2021/05/19 08:02:07;;;;;;;8.98;6.07;;;;;;;20.32;41.30;100338.16;5088527;28;20393;-64
2021/05/19 08:04:36;;;;;;;12.07;5.63;;;;;;;20.87;39.30;100335.63;5089330;28;20059;-64
2021/05/19 08:07:05;;;;;;;10.93;5.57;;;;;;;20.56;40.22;100336.84;5087168;28;20052;-63
2021/05/19 08:09:32;;;;;;;7.20;4.43;;;;;;;20.90;38.92;100334.03;5064433;28;20049;-64
2021/05/19 08:11:59;;;;;;;12.43;4.80;;;;;;;21.01;38.40;100326.44;5074968;28;20052;-64
2021/05/19 08:14:29;;;;;;;9.55;4.72;;;;;;;21.20;38.17;100327.44;5090489;28;20418;-64
2021/05/19 08:16:57;;;;;;;6.75;3.80;;;;;;;21.18;37.11;100327.00;5084462;28;20048;-64
2021/05/19 08:19:25;;;;;;;7.55;3.42;;;;;;;21.61;35.77;100321.75;5086609;28;20040;-65
2021/05/19 08:21:51;;;;;;;5.20;3.47;;;;;;;22.23;35.47;100321.72;5091195;28;20055;-64
2021/05/19 08:24:18;;;;;;;9.15;3.85;;;;;;;22.98;33.47;100321.16;5081241;28;20051;-64
2021/05/19 08:26:51;;;;;;;6.00;3.30;;;;;;;23.19;32.82;100316.78;5088079;28;20056;-65
2021/05/19 08:29:21;;;;;;;6.78;3.10;;;;;;;23.07;31.44;100315.13;5081535;28;20400;-65
2021/05/19 08:31:48;;;;;;;6.10;3.25;;;;;;;22.72;32.25;100322.34;5075697;28;20855;-64
2021/05/19 08:34:15;;;;;;;5.45;2.80;;;;;;;23.03;32.49;100317.94;5086818;28;20052;-64
2021/05/19 08:36:42;;;;;;;5.68;3.28;;;;;;;23.44;31.39;100316.78;5078751;28;20493;-63
2021/05/19 08:39:10;;;;;;;4.88;3.00;;;;;;;23.36;30.99;100309.47;5085908;28;20059;-63
2021/05/19 08:41:37;;;;;;;9.77;3.15;;;;;;;22.76;32.63;100322.34;5089288;28;20496;-65
2021/05/19 08:44:05;;;;;;;6.55;2.80;;;;;;;22.45;31.90;100316.97;5087876;28;20040;-63
2021/05/19 08:46:33;;;;;;;6.57;2.70;;;;;;;22.07;31.79;100312.72;5092751;28;20453;-63
2021/05/19 08:49:03;;;;;;;6.28;2.53;;;;;;;21.45;34.10;100316.34;5072807;28;20063;-64
2021/05/19 08:51:31;;;;;;;5.38;2.30;;;;;;;21.59;33.79;100321.31;5080184;28;20566;-65
2021/05/19 08:53:58;;;;;;;4.68;2.50;;;;;;;22.49;31.85;100312.13;5091828;28;20060;-64
2021/05/19 08:56:24;;;;;;;6.32;2.50;;;;;;;23.83;28.68;100322.47;5087490;28;20432;-64
2021/05/19 08:58:51;;;;;;;5.03;2.30;;;;;;;24.76;28.80;100304.22;5074447;28;20052;-64
2021/05/19 09:01:23;;;;;;;5.30;1.90;;;;;;;24.57;27.25;100316.97;5089302;28;20051;-65
2021/05/19 09:04:02;;;;;;;5.28;2.25;;;;;;;24.11;27.57;100317.91;5092245;28;20052;-64
2021/05/19 09:06:30;;;;;;;;;;;;;;;23.84;28.05;100312.69;5078804;28;20060;-64
2021/05/19 09:08:57;;;;;;;4.15;2.10;;;;;;;24.47;26.51;100310.03;5092543;28;20092;-64
2021/05/19 09:11:24;;;;;;;3.78;2.25;;;;;;;25.25;26.52;100312.88;5073513;28;20409;-65
2021/05/19 09:13:51;;;;;;;5.55;2.53;;;;;;;26.93;24.84;100304.50;5081492;28;20747;-65
2021/05/19 09:16:26;;;;;;;3.42;2.30;;;;;;;29.23;20.71;100297.22;5074028;28;20040;-66
2021/05/19 09:18:55;;;;;;;3.08;2.15;;;;;;;29.79;19.33;100299.88;5070371;28;20053;-65
2021/05/19 09:21:41;;;;;;;5.57;1.75;;;;;;;28.63;21.03;100308.84;5055202;28;20049;-65
2021/05/19 09:24:11;;;;;;;4.75;2.00;;;;;;;27.90;21.83;100309.44;5063687;28;20052;-65
2021/05/19 09:27:02;;;;;;;3.85;1.33;;;;;;;26.20;23.00;100308.72;5074227;28;20421;-65
2021/05/19 09:29:31;;;;;;;4.57;1.73;;;;;;;25.42;24.07;100311.91;5044355;28;20059;-65
2021/05/19 09:32:00;;;;;;;2.72;1.67;;;;;;;25.40;24.70;100313.56;5087620;28;20056;-65
2021/05/19 09:34:28;;;;;;;;;;;;;;;25.74;24.15;100322.22;5089364;28;20044;-65
2021/05/19 09:37:13;;;;;;;4.80;2.55;;;;;;;27.46;23.25;100308.56;5073899;28;19956;-65
2021/05/19 09:39:52;;;;;;;4.40;2.25;;;;;;;30.18;19.41;100306.59;5089557;28;20060;-66
2021/05/19 09:42:20;;;;;;;4.55;2.13;;;;;;;31.23;19.52;100298.53;5063142;28;20059;-66
2021/05/19 09:44:49;;;;;;;4.32;2.38;;;;;;;32.01;17.71;100297.91;5067983;28;20056;-66
2021/05/19 09:47:37;;;;;;;4.47;2.10;;;;;;;32.75;17.08;100290.56;5092691;28;20048;-66
2021/05/19 09:50:06;;;;;;;3.22;1.90;;;;;;;34.61;15.70;100282.97;5082191;28;20053;-66
2021/05/19 09:52:36;;;;;;;4.53;2.80;;;;;;;35.70;14.51;100285.88;5088981;28;20416;-67
2021/05/19 09:55:10;;;;;;;3.13;2.20;;;;;;;35.28;14.46;100286.78;5088894;28;20063;-68
2021/05/19 09:57:42;;;;;;;4.03;1.52;;;;;;;34.99;14.74;100285.31;5076710;28;20166;-67
2021/05/19 10:00:11;;;;;;;6.03;2.28;;;;;;;34.07;15.97;100279.69;5073296;28;20058;-67
2021/05/19 10:02:39;;;;;;;4.28;2.08;;;;;;;33.36;16.50;100287.31;5073227;28;20052;-67
2021/05/19 10:05:12;;;;;;;4.00;2.10;;;;;;;32.32;17.45;100286.47;5078583;28;20055;-67
2021/05/19 10:07:42;;;;;;;4.20;1.95;;;;;;;33.46;16.85;100285.25;5083109;28;20515;-67
2021/05/19 10:10:09;;;;;;;4.22;2.78;;;;;;;35.31;15.08;100277.91;5073465;28;20057;-67
2021/05/19 10:12:39;;;;;;;3.08;1.70;;;;;;;33.48;15.84;100285.56;5053551;28;20061;-67
2021/05/19 10:15:13;;;;;;;4.68;2.50;;;;;;;34.61;14.81;100280.91;5087557;28;20059;-67
2021/05/19 10:17:43;;;;;;;3.50;1.90;;;;;;;34.37;15.65;100286.59;5085902;28;20159;-67
2021/05/19 10:20:16;;;;;;;5.53;2.00;;;;;;;32.83;17.45;100284.53;5081322;28;20052;-66
2021/05/19 10:22:48;;;;;;;3.67;1.85;;;;;;;30.89;19.53;100292.22;5071968;28;20048;-67
2021/05/19 10:25:36;;;;;;;4.20;2.13;;;;;;;29.89;21.75;100304.53;5079787;28;20044;-67
2021/05/19 10:28:05;;;;;;;4.00;1.45;;;;;;;28.57;22.77;100311.41;5072702;28;20472;-67
2021/05/19 10:30:47;;;;;;;4.63;1.40;;;;;;;26.79;24.31;100324.72;5076024;28;20064;-67
2021/05/19 10:33:46;;;;;;;3.33;1.30;;;;;;;26.20;24.88;100309.53;5055999;28;20053;-66
2021/05/19 10:36:33;;;;;;;3.10;1.80;;;;;;;24.88;26.53;100326.56;5083266;28;20048;-66
2021/05/19 10:39:20;;;;;;;1.95;1.48;;;;;;;23.34;29.94;100317.59;5085797;28;20071;-66
2021/05/19 10:41:48;;;;;;;2.20;1.33;;;;;;;22.33;31.28;100316.53;5069055;28;20052;-66
2021/05/19 10:44:19;;;;;;;3.10;1.75;;;;;;;20.95;33.58;100324.38;5066211;28;20465;-65
2021/05/19 10:46:59;;;;;;;4.38;2.08;;;;;;;20.22;38.96;100311.38;5093012;28;20499;-65
2021/05/19 10:50:09;;;;;;;3.03;1.75;;;;;;;19.61;39.51;100304.00;5090998;28;20059;-65
2021/05/19 10:58:42;;;;;;;3.88;2.08;;;;;;;22.25;39.77;100298.63;5067984;28;20067;-66
2021/05/19 11:01:10;;;;;;;3.40;2.40;;;;;;;23.42;39.41;100302.16;5074405;28;20489;-66
2021/05/19 11:03:38;;;;;;;4.50;2.40;;;;;;;25.86;31.13;100280.94;5069263;28;20057;-67
2021/05/19 11:06:10;;;;;;;3.42;2.05;;;;;;;28.17;26.99;100282.75;5064384;28;20045;-66
2021/05/19 11:08:37;;;;;;;5.22;1.90;;;;;;;28.78;24.23;100277.78;5064338;28;20049;-67
2021/05/19 11:11:37;;;;;;;3.78;2.30;;;;;;;31.09;20.60;100274.69;5072553;28;20056;-70
2021/05/19 11:14:24;;;;;;;3.53;1.52;;;;;;;32.41;18.56;100270.50;5068440;28;20052;-67
2021/05/19 11:16:59;;;;;;;3.33;1.85;;;;;;;33.71;17.26;100270.53;5070583;28;20049;-68
2021/05/19 11:19:34;;;;;;;3.10;1.80;;;;;;;34.44;15.48;100265.19;5059107;28;20055;-67
2021/05/19 11:22:07;;;;;;;3.35;1.90;;;;;;;35.54;15.32;100258.94;5070707;28;20056;-67
2021/05/19 11:24:52;;;;;;;2.58;1.73;;;;;;;37.02;14.03;100256.69;5074961;28;20063;-65
2021/05/19 11:27:21;;;;;;;2.75;1.52;;;;;;;37.77;12.49;100253.03;5071264;28;20056;-69
2021/05/19 11:29:49;;;;;;;3.85;1.60;;;;;;;36.65;12.75;100272.50;5074641;28;20405;-67
2021/05/19 11:32:20;;;;;;;3.58;1.70;;;;;;;36.75;13.60;100256.56;5069905;28;20048;-67
2021/05/19 11:34:48;;;;;;;3.40;1.70;;;;;;;37.37;13.30;100263.31;5081205;28;20059;-67
2021/05/19 11:37:16;;;;;;;2.90;1.42;;;;;;;36.82;14.01;100248.75;5076614;28;20390;-67